createdAt,value
2019-03-16T00:03:39.177Z,98150.73
2019-03-16T00:08:44.251Z,98139.03
2019-03-16T00:13:49.350Z,98145.89
2019-03-16T00:18:54.594Z,98146.68
2019-03-16T00:23:59.654Z,98139.30
2019-03-16T00:29:05.098Z,98145.19
2019-03-16T00:34:10.264Z,98152.84
2019-03-16T00:39:15.384Z,98147.09
2019-03-16T00:44:20.520Z,98147.09
2019-03-16T00:49:26.088Z,98161.23
2019-03-16T00:54:31.157Z,98189.85
2019-03-16T00:59:36.259Z,98181.65
2019-03-16T01:04:41.528Z,98181.19
2019-03-16T01:09:46.647Z,98189.14
2019-03-16T01:14:51.777Z,98189.14
2019-03-16T01:19:57.029Z,98202.42
2019-03-16T01:25:02.222Z,98213.20
2019-03-16T01:30:12.599Z,98211.09
2019-03-16T01:35:17.767Z,98206.34
2019-03-16T01:40:22.970Z,98208.88
2019-03-16T01:45:28.289Z,98231.31
2019-03-16T01:50:33.673Z,98219.72
2019-03-16T01:55:38.763Z,98238.61
2019-03-16T02:00:43.997Z,98247.50
2019-03-16T02:05:49.060Z,98276.53
2019-03-16T02:10:54.710Z,98287.22
2019-03-16T02:16:10.263Z,98303.73
2019-03-16T02:21:06.742Z,98337.59
2019-03-16T02:26:11.950Z,98363.36
2019-03-16T02:31:17.528Z,98387.91
2019-03-16T02:36:22.645Z,98427.00
2019-03-16T02:41:27.773Z,98450.58
2019-03-16T02:46:32.819Z,98481.55
2019-03-16T02:51:37.926Z,98514.23
2019-03-16T02:56:43.100Z,98481.69
2019-03-16T03:01:48.196Z,98549.12
2019-03-16T03:06:53.364Z,98564.34
2019-03-16T03:11:58.511Z,98594.06
2019-03-16T03:17:04.759Z,98622.45
2019-03-16T03:22:09.923Z,98646.91
2019-03-16T03:27:15.061Z,98671.52
2019-03-16T03:32:20.215Z,98694.84
2019-03-16T03:37:25.314Z,98709.52
2019-03-16T03:42:30.416Z,98725.94
2019-03-16T03:47:35.589Z,98755.24
2019-03-16T03:52:40.873Z,98783.73
2019-03-16T03:57:46.032Z,98798.32
2019-03-16T04:02:51.230Z,98804.26
2019-03-16T04:07:56.392Z,98834.76
2019-03-16T04:13:02.473Z,98841.54
2019-03-16T04:18:07.658Z,98861.31
2019-03-16T04:23:12.780Z,98878.77
2019-03-16T04:28:18.029Z,98884.62
2019-03-16T04:33:23.189Z,98912.31
2019-03-16T04:38:28.427Z,98948.55
2019-03-16T04:43:33.579Z,98948.55
2019-03-16T04:48:38.838Z,98962.34
2019-03-16T04:53:44.119Z,98978.33
2019-03-16T04:58:51.547Z,98998.05
2019-03-16T05:03:56.026Z,99006.59
2019-03-16T05:09:01.227Z,99025.83
2019-03-16T05:14:07.353Z,99037.84
2019-03-16T05:19:12.762Z,99059.52
2019-03-16T05:24:17.848Z,99083.30
2019-03-16T05:29:23.042Z,99092.77
2019-03-16T05:34:28.210Z,99116.37
2019-03-16T05:39:33.614Z,99130.59
2019-03-16T05:44:38.708Z,99155.48
2019-03-16T05:49:43.864Z,99164.11
2019-03-16T05:54:49.123Z,99180.20
2019-03-16T05:59:54.235Z,99202.61
2019-03-16T06:05:09.750Z,99216.06
2019-03-16T06:10:09.121Z,99218.99
2019-03-16T06:15:14.291Z,99228.95
2019-03-16T06:20:19.385Z,99250.51
2019-03-16T06:25:24.493Z,99266.16
2019-03-16T06:30:30.751Z,99284.44
2019-03-16T06:35:35.911Z,99311.72
2019-03-16T06:40:41.066Z,99315.35
2019-03-16T06:45:46.198Z,99333.98
2019-03-16T06:50:51.213Z,99353.41
2019-03-16T06:55:56.629Z,99366.52
2019-03-16T07:01:01.739Z,99377.34
2019-03-16T07:06:06.867Z,99379.52
2019-03-16T07:11:11.928Z,99382.19
2019-03-16T07:16:17.058Z,99412.63
2019-03-16T07:21:22.154Z,99418.91
2019-03-16T07:26:27.284Z,99423.19
2019-03-16T07:31:32.328Z,99426.69
2019-03-16T07:36:37.431Z,99452.33
2019-03-16T07:41:42.628Z,99463.75
2019-03-16T07:46:48.014Z,99467.52
2019-03-16T07:51:53.291Z,99476.30
2019-03-16T07:56:58.675Z,99471.75
2019-03-16T08:02:03.841Z,99484.19
2019-03-16T08:07:08.933Z,99506.63
2019-03-16T08:12:14.066Z,99516.55
2019-03-16T08:17:19.104Z,99531.73
2019-03-16T08:22:24.166Z,99538.59
2019-03-16T08:27:29.265Z,99543.22
2019-03-16T08:32:34.377Z,99553.52
2019-03-16T08:37:39.489Z,99560.25
2019-03-16T08:42:44.574Z,99572.09
2019-03-16T08:47:49.663Z,99590.13
2019-03-16T08:52:54.874Z,99605.55
2019-03-16T08:58:05.996Z,99620.27
2019-03-16T09:03:07.126Z,99633.09
2019-03-16T09:08:12.217Z,99646.28
2019-03-16T09:13:17.309Z,99668.13
2019-03-16T09:18:22.391Z,99673.19
2019-03-16T09:23:28.088Z,99677.33
2019-03-16T09:28:33.190Z,99677.74
2019-03-16T09:33:38.253Z,99695.00
2019-03-16T09:38:43.378Z,99699.86
2019-03-16T09:43:48.697Z,99704.73
2019-03-16T09:48:53.803Z,99716.53
2019-03-16T09:53:58.991Z,99723.80
2019-03-16T09:59:05.020Z,99730.72
2019-03-16T10:04:10.265Z,99722.95
2019-03-16T10:09:15.453Z,99732.45
2019-03-16T10:14:20.526Z,99749.30
2019-03-16T10:19:25.664Z,99734.76
2019-03-16T10:24:30.839Z,99736.96
2019-03-16T10:29:35.914Z,99752.75
2019-03-16T10:34:40.934Z,99754.33
2019-03-16T10:39:46.030Z,99765.11
2019-03-16T10:44:51.124Z,99774.51
2019-03-16T10:49:56.258Z,99787.75
2019-03-16T10:55:01.395Z,99788.94
2019-03-16T11:00:09.655Z,99803.65
2019-03-16T11:05:14.859Z,99815.09
2019-03-16T11:10:20.025Z,99815.73
2019-03-16T11:15:25.138Z,99817.76
2019-03-16T11:20:30.351Z,99820.14
2019-03-16T11:25:35.601Z,99841.33
2019-03-16T11:30:40.678Z,99843.48
2019-03-16T11:35:45.931Z,99836.72
2019-03-16T12:10:33.878Z,99875.91
2019-03-16T12:15:39.160Z,99868.66
2019-03-16T12:20:44.286Z,99874.92
2019-03-16T12:25:49.443Z,99877.52
2019-03-16T12:30:54.596Z,99866.88
2019-03-16T12:35:59.616Z,99868.50
2019-03-16T12:41:05.081Z,99882.51
2019-03-16T12:46:11.527Z,99888.19
2019-03-16T12:51:16.683Z,99888.19
2019-03-16T12:56:21.768Z,99888.67
2019-03-16T13:01:26.902Z,99902.72
2019-03-16T13:06:31.989Z,99906.78
2019-03-16T13:11:37.475Z,99912.16
2019-03-16T13:16:42.806Z,99909.57
2019-03-16T13:21:48.310Z,99908.99
2019-03-16T13:26:53.464Z,99924.99
2019-03-16T13:31:58.579Z,99911.68
2019-03-16T13:37:04.601Z,99922.13
2019-03-16T13:42:10.102Z,99920.03
2019-03-16T13:47:15.345Z,99919.48
2019-03-16T13:52:20.526Z,99929.83
2019-03-16T13:57:25.645Z,99939.98
2019-03-16T14:02:30.649Z,99951.27
2019-03-16T14:07:35.901Z,99962.16
2019-03-16T14:12:41.042Z,99976.70
2019-03-16T14:17:46.501Z,99988.62
2019-03-16T14:22:51.833Z,99985.25
2019-03-16T14:27:57.099Z,99993.16
2019-03-16T14:33:02.346Z,99998.66
2019-03-16T14:38:07.546Z,99999.38
2019-03-16T14:43:13.099Z,100005.91
2019-03-16T14:48:18.163Z,100013.55
2019-03-16T14:53:23.305Z,100009.14
2019-03-16T14:58:28.561Z,100011.08
2019-03-16T15:03:33.687Z,100010.70
2019-03-16T15:08:38.791Z,100019.19
2019-03-16T15:13:44.174Z,100024.30
2019-03-16T15:18:50.421Z,100033.89
2019-03-16T15:23:55.567Z,100046.86
2019-03-16T15:29:02.660Z,100056.54
2019-03-16T15:34:07.714Z,100064.92
2019-03-16T15:39:12.930Z,100052.28
2019-03-16T15:44:18.378Z,100044.78
2019-03-16T15:49:23.616Z,100050.00
2019-03-16T15:54:28.712Z,100061.89
2019-03-16T16:04:52.451Z,100064.27
2019-03-16T16:09:57.813Z,100058.41
2019-03-16T16:15:03.411Z,100070.91
2019-03-16T16:20:17.293Z,100056.53
2019-03-16T16:25:22.463Z,100072.80
2019-03-16T16:30:27.627Z,100069.16
2019-03-16T16:35:32.820Z,100081.88
2019-03-16T16:40:38.164Z,100087.67
2019-03-16T16:45:43.415Z,100076.73
2019-03-16T16:50:48.577Z,100081.86
2019-03-16T16:55:53.762Z,100083.72
2019-03-16T17:00:58.902Z,100089.56
2019-03-16T17:06:04.536Z,100085.90
2019-03-16T17:11:09.783Z,100095.26
2019-03-16T17:16:15.357Z,100110.16
2019-03-16T17:21:20.455Z,100116.26
2019-03-16T17:26:25.561Z,100130.66
2019-03-16T17:31:41.748Z,100130.73
2019-03-16T17:36:37.527Z,100141.96
2019-03-16T17:41:42.683Z,100140.52
2019-03-16T17:46:47.925Z,100146.53
2019-03-16T17:51:53.029Z,100145.36
2019-03-16T17:56:58.203Z,100162.98
2019-03-16T18:02:03.302Z,100160.69
2019-03-16T18:07:08.528Z,100158.95
2019-03-16T18:12:13.778Z,100155.06
2019-03-16T18:17:19.291Z,100141.28
2019-03-16T18:22:24.586Z,100137.32
2019-03-16T18:27:29.675Z,100136.39
2019-03-16T18:32:34.757Z,100127.66
2019-03-16T18:37:41.101Z,100134.21
2019-03-16T18:42:47.386Z,100124.10
2019-03-16T18:47:52.468Z,100125.76
2019-03-16T18:52:57.591Z,100121.88
2019-03-16T18:58:02.833Z,100127.78
2019-03-16T19:03:11.436Z,100122.41
2019-03-16T19:08:15.183Z,100122.41
2019-03-16T19:13:20.312Z,100124.23
2019-03-16T19:18:25.609Z,100134.89
2019-03-16T19:23:31.915Z,100131.78
2019-03-16T19:28:37.151Z,100132.67
2019-03-16T19:33:42.256Z,100120.30
2019-03-16T19:38:47.455Z,100114.75
2019-03-16T19:43:52.526Z,100107.55
2019-03-16T19:48:58.702Z,100117.42
2019-03-16T19:54:04.715Z,100124.41
2019-03-16T19:59:09.854Z,100120.34
2019-03-16T20:04:15.023Z,100108.53
2019-03-16T20:09:20.295Z,100103.48
2019-03-16T20:14:25.389Z,100110.55
2019-03-16T20:19:30.761Z,100107.19
2019-03-16T20:24:36.025Z,100115.77
2019-03-16T20:29:41.262Z,100118.31
2019-03-16T20:34:46.320Z,100127.04
2019-03-16T20:39:51.603Z,100121.42
2019-03-16T20:44:56.845Z,100120.02
2019-03-16T20:50:01.997Z,100117.79
2019-03-16T20:55:08.546Z,100126.44
2019-03-16T21:00:17.557Z,100117.42
2019-03-16T21:05:22.678Z,100120.77
2019-03-16T21:10:27.836Z,100111.59
2019-03-16T21:15:32.882Z,100105.05
2019-03-16T21:20:38.441Z,100111.89
2019-03-16T21:25:43.636Z,100107.34
2019-03-16T21:30:48.805Z,100096.37
2019-03-16T21:35:54.178Z,100089.64
2019-03-16T21:40:59.350Z,100089.64
2019-03-16T21:46:05.730Z,100099.55
2019-03-16T21:51:11.019Z,100079.91
2019-03-16T21:56:16.142Z,100084.64
2019-03-16T22:01:21.398Z,100089.67
2019-03-16T22:06:26.592Z,100086.38
2019-03-16T22:11:31.773Z,100094.03
2019-03-16T22:16:37.037Z,100094.26
2019-03-16T22:21:42.528Z,100088.05
2019-03-16T22:26:47.751Z,100089.05
2019-03-16T22:31:52.971Z,100078.09
2019-03-16T22:36:58.089Z,100061.98
2019-03-16T22:42:03.309Z,100051.33
2019-03-16T22:47:09.587Z,100050.44
2019-03-16T22:52:14.675Z,100041.05
2019-03-16T22:57:19.813Z,100036.94
2019-03-16T23:02:25.007Z,100038.56
2019-03-16T23:07:30.272Z,100037.89
2019-03-16T23:12:35.509Z,100034.88
2019-03-16T23:17:40.813Z,100034.20
2019-03-16T23:22:46.123Z,100019.04
2019-03-16T23:27:51.245Z,100007.50
2019-03-16T23:32:56.662Z,100001.66
2019-03-16T23:38:01.898Z,99986.13
2019-03-16T23:43:07.176Z,99980.34
2019-03-16T23:48:12.230Z,99977.09
2019-03-16T23:53:17.254Z,99960.41
2019-03-16T23:58:22.363Z,99959.45
